• Join FlightAware (Why Join?)
  • Login
  • US Flag 
06:10PM EDT


 

Airport Tracker/Info


-or-


 

Live Flight TrackerFlight Track Log ✈ PDT4226 ✈ 29-Jan-2014 ✈ KBGM - KPHL

Flight Track Log - Related Links

Times and Time Zones

All times are in EST time to prevent confusion due to time zone crossing. See the PDT4226 flight status page for this flight to view local times or setup timezone preferences in your user account.

Time Position Orientation Groundspeed Altitude Reporting Facility
EST Latitude Longitude Course Direction KTS MPH feet Rate Location/Type
01:39PM 42.0709 -75.9346 173° South  Level Estimated
01:40PM 42.0250 -75.9196 180° South  Level Estimated
01:41PM 41.9791 -75.9046 180° South  Level Estimated
01:42PM 41.9321 -75.9106 185° South  Level FlightAware Approximate
01:43PM 41.8852 -75.9164 185° South  Level FlightAware Approximate
01:44PM 41.8382 -75.9223 185° South  Level FlightAware Approximate
01:45PM 41.7912 -75.9282 185° South  Level FlightAware Approximate
01:46PM 41.7457 -75.9114 154° Southeast  Level Estimated
01:47PM 41.7002 -75.8946 160° South  Level Estimated
01:48PM 41.6551 -75.8758 163° South  Level FlightAware Approximate
01:49PM 41.6096 -75.8591 159° South  Level Estimated
01:50PM 41.5658 -75.8355 158° South  Level FlightAware Approximate
01:51PM 41.5221 -75.8119 158° South  Level FlightAware Approximate
01:52PM 41.4765 -75.7957 153° Southeast  Level Estimated
01:53PM 41.4309 -75.7795 161° South  Level Estimated
01:54PM 41.3877 -75.7542 156° South  Level FlightAware Approximate
01:55PM 41.3445 -75.7289 156° South  Level FlightAware Approximate
01:56PM 41.3013 -75.7036 156° South  Level FlightAware Approximate
01:57PM 41.2555 -75.6884 162° South  Level Estimated
01:58PM 41.2111 -75.6672 160° South  Level FlightAware Approximate
01:59PM 41.1667 -75.6460 160° South  Level FlightAware Approximate
02:00PM 41.1222 -75.6248 160° South  Level FlightAware Approximate
02:01PM 41.0778 -75.6036 160° South  Level FlightAware Approximate
02:02PM 41.0334 -75.5825 160° South  Level FlightAware Approximate
02:03PM 40.9874 -75.5687 159° South  Level Estimated
02:03PM 40.6333 -75.3167 190° South 214 246 7,500  Level Philadelphia TRACON
02:04PM 40.9413 -75.5550 163° South  Level Estimated
02:04PM 40.6000 -75.3667 229° Southwest 208 239 6,900  Level Philadelphia TRACON
02:05PM 40.8969 -75.5341 160° South  Level FlightAware Approximate
02:05PM 40.5500 -75.4000 207° Southwest 231 266 6,200  Level Philadelphia TRACON
02:06PM 40.8524 -75.5133 161° South  Level FlightAware Approximate
02:06PM 40.4833 -75.3833 169° South 258 297 5,300  Level Philadelphia TRACON
02:07PM 40.8079 -75.4925 161° South  Level FlightAware Approximate
02:07PM 40.4333 -75.3500 153° Southeast 256 295 5,000  Level Philadelphia TRACON
02:08PM 40.7634 -75.4718 161° South  Level FlightAware Approximate
02:08PM 40.3667 -75.3333 169° South 248 285 5,000  Level Philadelphia TRACON
02:09PM 40.7171 -75.4596 190° South  Level Estimated
02:09PM 40.3000 -75.3000 159° South 241 277 5,000  Level Philadelphia TRACON
02:10PM 40.2333 -75.2833 169° South 243 280 4,500 -540 Descending Philadelphia TRACON
02:11PM 40.1667 -75.2500 159° South 256 295 4,000 -300 Descending Philadelphia TRACON
02:12PM 40.1000 -75.2333 169° South 240 276 4,000  Level Philadelphia TRACON
02:13PM 40.0500 -75.2000 153° Southeast 237 273 4,000  Level Philadelphia TRACON
02:14PM 39.9833 -75.1667 159° South 222 255 4,000  Level Philadelphia TRACON
02:15PM 39.9333 -75.1500 166° South 220 253 4,000 -180 Level Philadelphia TRACON
02:16PM 39.8833 -75.1333 166° South 216 249 3,700 -960 Descending Philadelphia TRACON
02:17PM 39.8167 -75.1333 180° South 184 212 2,100 -840 Descending Philadelphia TRACON
02:18PM 39.7833 -75.1833 229° Southwest 161 185 2,000 -300 Descending Philadelphia TRACON
02:19PM 39.8167 -75.2167 322° Northwest 159 183 1,600 -660 Descending Philadelphia TRACON
02:20PM 39.8500 -75.2167 360° North 123 142 800 -900 Descending Philadelphia TRACON